sensor_id;sensor_type;location;lat;lon;timestamp;pressure;altitude;pressure_sealevel;temperature;humidity
10466;BME280;5280;42.600;23.556;2022-12-07T00:01:06;93358.16;;;5.27;100.00
10466;BME280;5280;42.600;23.556;2022-12-07T00:03:33;93371.72;;;5.33;100.00
10466;BME280;5280;42.600;23.556;2022-12-07T00:06:01;93361.72;;;5.26;100.00
10466;BME280;5280;42.600;23.556;2022-12-07T00:08:31;93367.78;;;5.26;100.00
10466;BME280;5280;42.600;23.556;2022-12-07T00:11:01;93381.09;;;5.37;100.00
10466;BME280;5280;42.600;23.556;2022-12-07T00:13:28;93381.84;;;5.39;100.00
10466;BME280;5280;42.600;23.556;2022-12-07T00:15:55;93381.84;;;5.39;100.00
10466;BME280;5280;42.600;23.556;2022-12-07T00:18:21;93307.66;;;4.95;100.00
10466;BME280;5280;42.600;23.556;2022-12-07T00:20:48;93369.88;;;5.35;100.00
10466;BME280;5280;42.600;23.556;2022-12-07T00:23:15;93377.28;;;5.43;100.00
10466;BME280;5280;42.600;23.556;2022-12-07T00:25:43;93295.63;;;5.06;100.00
10466;BME280;5280;42.600;23.556;2022-12-07T00:28:10;93351.25;;;5.40;100.00
10466;BME280;5280;42.600;23.556;2022-12-07T00:30:37;93356.97;;;5.46;100.00
10466;BME280;5280;42.600;23.556;2022-12-07T00:33:04;93353.69;;;5.43;100.00
10466;BME280;5280;42.600;23.556;2022-12-07T00:35:30;93367.44;;;5.46;100.00
10466;BME280;5280;42.600;23.556;2022-12-07T00:37:57;93290.66;;;5.02;100.00
10466;BME280;5280;42.600;23.556;2022-12-07T00:40:24;93370.81;;;5.48;100.00
10466;BME280;5280;42.600;23.556;2022-12-07T00:42:59;93307.03;;;5.05;100.00
10466;BME280;5280;42.600;23.556;2022-12-07T00:45:30;93302.91;;;5.01;100.00
10466;BME280;5280;42.600;23.556;2022-12-07T00:47:57;93363.06;;;5.47;100.00
10466;BME280;5280;42.600;23.556;2022-12-07T00:50:34;93372.41;;;5.51;100.00
10466;BME280;5280;42.600;23.556;2022-12-07T00:53:03;93362.78;;;5.51;100.00
10466;BME280;5280;42.600;23.556;2022-12-07T00:55:35;93253.88;;;4.89;100.00
10466;BME280;5280;42.600;23.556;2022-12-07T00:58:04;93317.81;;;5.29;100.00
10466;BME280;5280;42.600;23.556;2022-12-07T01:00:32;93356.69;;;5.51;100.00
10466;BME280;5280;42.600;23.556;2022-12-07T01:03:02;93329.34;;;5.27;100.00
10466;BME280;5280;42.600;23.556;2022-12-07T01:05:32;93319.97;;;5.23;100.00
10466;BME280;5280;42.600;23.556;2022-12-07T01:08:00;93252.09;;;4.75;100.00
10466;BME280;5280;42.600;23.556;2022-12-07T01:10:30;93333.38;;;5.32;100.00
10466;BME280;5280;42.600;23.556;2022-12-07T01:13:04;93279.91;;;4.92;100.00
10466;BME280;5280;42.600;23.556;2022-12-07T01:15:32;93360.88;;;5.53;100.00
10466;BME280;5280;42.600;23.556;2022-12-07T01:18:01;93314.75;;;5.23;100.00
10466;BME280;5280;42.600;23.556;2022-12-07T01:20:30;93263.56;;;5.03;100.00
10466;BME280;5280;42.600;23.556;2022-12-07T01:23:02;93272.41;;;5.00;100.00
10466;BME280;5280;42.600;23.556;2022-12-07T01:25:29;93229.88;;;4.83;100.00
10466;BME280;5280;42.600;23.556;2022-12-07T01:27:56;93239.09;;;4.88;100.00
10466;BME280;5280;42.600;23.556;2022-12-07T01:30:26;93340.47;;;5.58;100.00
10466;BME280;5280;42.600;23.556;2022-12-07T01:32:57;93236.88;;;4.96;100.00
10466;BME280;5280;42.600;23.556;2022-12-07T01:35:25;93305.69;;;5.42;100.00
10466;BME280;5280;42.600;23.556;2022-12-07T01:37:52;93342.53;;;5.53;100.00
10466;BME280;5280;42.600;23.556;2022-12-07T01:40:22;93245.19;;;4.89;100.00
10466;BME280;5280;42.600;23.556;2022-12-07T01:42:49;93343.22;;;5.57;100.00
10466;BME280;5280;42.600;23.556;2022-12-07T01:45:44;93342.44;;;5.55;100.00
10466;BME280;5280;42.600;23.556;2022-12-07T01:48:13;93321.84;;;5.35;100.00
10466;BME280;5280;42.600;23.556;2022-12-07T01:50:41;93341.41;;;5.43;100.00
10466;BME280;5280;42.600;23.556;2022-12-07T01:53:10;93322.22;;;5.29;100.00
10466;BME280;5280;42.600;23.556;2022-12-07T01:55:39;93337.00;;;5.44;100.00
10466;BME280;5280;42.600;23.556;2022-12-07T01:58:09;93336.38;;;5.40;100.00
10466;BME280;5280;42.600;23.556;2022-12-07T02:00:38;93323.19;;;5.42;100.00
10466;BME280;5280;42.600;23.556;2022-12-07T02:03:09;93323.34;;;5.39;100.00
10466;BME280;5280;42.600;23.556;2022-12-07T02:05:40;93329.06;;;5.45;100.00
10466;BME280;5280;42.600;23.556;2022-12-07T02:08:11;93239.78;;;4.78;100.00
10466;BME280;5280;42.600;23.556;2022-12-07T02:10:39;93238.38;;;4.86;100.00
10466;BME280;5280;42.600;23.556;2022-12-07T02:13:11;93328.22;;;5.45;100.00
10466;BME280;5280;42.600;23.556;2022-12-07T02:15:51;93324.66;;;5.46;100.00
10466;BME280;5280;42.600;23.556;2022-12-07T02:18:35;93325.44;;;5.48;100.00
10466;BME280;5280;42.600;23.556;2022-12-07T02:21:08;93325.50;;;5.46;100.00
10466;BME280;5280;42.600;23.556;2022-12-07T02:26:59;93307.25;;;5.45;100.00
10466;BME280;5280;42.600;23.556;2022-12-07T02:29:33;93313.06;;;5.50;100.00
10466;BME280;5280;42.600;23.556;2022-12-07T02:32:07;93291.72;;;5.42;100.00
10466;BME280;5280;42.600;23.556;2022-12-07T02:34:42;93303.34;;;5.52;100.00
10466;BME280;5280;42.600;23.556;2022-12-07T02:37:18;93301.66;;;5.51;100.00
10466;BME280;5280;42.600;23.556;2022-12-07T02:39:51;93315.31;;;5.56;100.00
10466;BME280;5280;42.600;23.556;2022-12-07T02:42:23;93306.59;;;5.55;100.00
10466;BME280;5280;42.600;23.556;2022-12-07T02:44:54;93310.00;;;5.57;100.00
10466;BME280;5280;42.600;23.556;2022-12-07T02:47:22;93292.09;;;5.50;100.00
10466;BME280;5280;42.600;23.556;2022-12-07T02:49:51;93303.78;;;5.58;100.00
10466;BME280;5280;42.600;23.556;2022-12-07T02:52:18;93293.78;;;5.51;100.00
10466;BME280;5280;42.600;23.556;2022-12-07T02:54:45;93285.72;;;5.40;100.00
10466;BME280;5280;42.600;23.556;2022-12-07T02:57:26;93305.00;;;5.53;100.00
10466;BME280;5280;42.600;23.556;2022-12-07T03:00:05;93301.38;;;5.55;100.00
10466;BME280;5280;42.600;23.556;2022-12-07T03:02:40;93301.28;;;5.57;100.00
10466;BME280;5280;42.600;23.556;2022-12-07T03:05:25;93252.59;;;5.25;100.00
10466;BME280;5280;42.600;23.556;2022-12-07T03:08:00;93309.88;;;5.59;100.00
10466;BME280;5280;42.600;23.556;2022-12-07T03:10:38;93304.63;;;5.59;100.00
10466;BME280;5280;42.600;23.556;2022-12-07T03:13:11;93305.97;;;5.52;100.00
10466;BME280;5280;42.600;23.556;2022-12-07T03:15:45;93205.84;;;4.90;100.00
10466;BME280;5280;42.600;23.556;2022-12-07T03:18:18;93227.47;;;5.08;100.00
10466;BME280;5280;42.600;23.556;2022-12-07T03:20:46;93293.03;;;5.49;100.00
10466;BME280;5280;42.600;23.556;2022-12-07T03:23:16;93296.31;;;5.52;100.00
10466;BME280;5280;42.600;23.556;2022-12-07T03:25:47;93305.19;;;5.50;100.00
10466;BME280;5280;42.600;23.556;2022-12-07T03:28:18;93302.56;;;5.50;100.00
10466;BME280;5280;42.600;23.556;2022-12-07T03:30:50;93301.84;;;5.48;100.00
10466;BME280;5280;42.600;23.556;2022-12-07T03:33:23;93289.41;;;5.37;100.00
10466;BME280;5280;42.600;23.556;2022-12-07T03:35:58;93298.84;;;5.40;100.00
10466;BME280;5280;42.600;23.556;2022-12-07T03:38:32;93264.22;;;5.20;100.00
10466;BME280;5280;42.600;23.556;2022-12-07T03:41:01;93263.28;;;5.22;100.00
10466;BME280;5280;42.600;23.556;2022-12-07T03:43:30;93265.97;;;5.20;100.00
10466;BME280;5280;42.600;23.556;2022-12-07T03:46:18;93276.94;;;5.27;100.00
10466;BME280;5280;42.600;23.556;2022-12-07T03:48:54;93258.50;;;5.14;100.00
10466;BME280;5280;42.600;23.556;2022-12-07T03:51:36;93216.50;;;4.73;100.00
10466;BME280;5280;42.600;23.556;2022-12-07T03:54:10;93230.16;;;4.92;100.00
10466;BME280;5280;42.600;23.556;2022-12-07T03:56:39;93259.13;;;5.03;100.00
10466;BME280;5280;42.600;23.556;2022-12-07T03:59:08;93237.81;;;4.95;100.00
10466;BME280;5280;42.600;23.556;2022-12-07T04:01:36;93240.16;;;5.00;100.00
10466;BME280;5280;42.600;23.556;2022-12-07T04:04:03;93242.69;;;4.87;100.00
10466;BME280;5280;42.600;23.556;2022-12-07T04:06:30;93295.78;;;5.03;100.00
10466;BME280;5280;42.600;23.556;2022-12-07T04:08:58;93220.66;;;4.61;100.00
10466;BME280;5280;42.600;23.556;2022-12-07T04:11:27;93286.84;;;5.07;100.00
10466;BME280;5280;42.600;23.556;2022-12-07T04:13:55;93269.50;;;4.91;100.00
10466;BME280;5280;42.600;23.556;2022-12-07T04:16:41;93266.25;;;4.87;100.00
10466;BME280;5280;42.600;23.556;2022-12-07T04:19:08;93181.25;;;4.34;100.00
10466;BME280;5280;42.600;23.556;2022-12-07T04:21:35;93182.75;;;4.39;100.00
10466;BME280;5280;42.600;23.556;2022-12-07T04:24:02;93286.56;;;4.98;100.00
10466;BME280;5280;42.600;23.556;2022-12-07T04:26:29;93284.03;;;4.96;100.00
10466;BME280;5280;42.600;23.556;2022-12-07T04:28:56;93278.22;;;4.91;100.00
10466;BME280;5280;42.600;23.556;2022-12-07T04:31:23;93278.94;;;4.93;100.00
10466;BME280;5280;42.600;23.556;2022-12-07T04:33:51;93260.53;;;4.81;100.00
10466;BME280;5280;42.600;23.556;2022-12-07T04:36:18;93285.03;;;4.94;100.00
10466;BME280;5280;42.600;23.556;2022-12-07T04:38:46;93281.69;;;4.92;100.00
10466;BME280;5280;42.600;23.556;2022-12-07T04:41:13;93284.47;;;4.89;100.00
10466;BME280;5280;42.600;23.556;2022-12-07T04:43:40;93289.81;;;4.87;100.00
10466;BME280;5280;42.600;23.556;2022-12-07T04:46:07;93289.81;;;4.87;100.00
10466;BME280;5280;42.600;23.556;2022-12-07T04:48:33;93300.44;;;4.84;100.00
10466;BME280;5280;42.600;23.556;2022-12-07T04:51:05;93286.13;;;4.75;100.00
10466;BME280;5280;42.600;23.556;2022-12-07T04:53:33;93265.50;;;4.55;100.00
10466;BME280;5280;42.600;23.556;2022-12-07T04:56:03;93281.06;;;4.72;100.00
10466;BME280;5280;42.600;23.556;2022-12-07T04:58:30;93301.63;;;4.78;100.00
10466;BME280;5280;42.600;23.556;2022-12-07T05:01:02;93291.16;;;4.78;100.00
10466;BME280;5280;42.600;23.556;2022-12-07T05:03:29;93233.03;;;4.44;100.00
10466;BME280;5280;42.600;23.556;2022-12-07T05:05:55;93290.94;;;4.83;100.00
10466;BME280;5280;42.600;23.556;2022-12-07T05:08:24;93243.72;;;4.55;100.00
10466;BME280;5280;42.600;23.556;2022-12-07T05:10:51;93297.09;;;4.82;100.00
10466;BME280;5280;42.600;23.556;2022-12-07T05:13:17;93272.81;;;4.64;100.00
10466;BME280;5280;42.600;23.556;2022-12-07T05:15:44;93294.91;;;4.74;100.00
10466;BME280;5280;42.600;23.556;2022-12-07T05:18:12;93299.88;;;4.79;100.00
10466;BME280;5280;42.600;23.556;2022-12-07T05:20:39;93276.53;;;4.60;100.00
10466;BME280;5280;42.600;23.556;2022-12-07T05:23:06;93295.09;;;4.71;100.00
10466;BME280;5280;42.600;23.556;2022-12-07T05:25:35;93295.38;;;4.67;100.00
10466;BME280;5280;42.600;23.556;2022-12-07T05:28:02;93287.22;;;4.57;100.00
10466;BME280;5280;42.600;23.556;2022-12-07T05:30:29;93292.25;;;4.60;100.00
10466;BME280;5280;42.600;23.556;2022-12-07T05:32:56;93258.38;;;4.43;100.00
10466;BME280;5280;42.600;23.556;2022-12-07T05:35:23;93294.09;;;4.58;100.00
10466;BME280;5280;42.600;23.556;2022-12-07T05:37:50;93293.28;;;4.58;100.00
10466;BME280;5280;42.600;23.556;2022-12-07T05:40:17;93289.25;;;4.52;100.00
10466;BME280;5280;42.600;23.556;2022-12-07T05:42:45;93285.19;;;4.47;100.00
10466;BME280;5280;42.600;23.556;2022-12-07T05:45:12;93237.19;;;4.18;100.00
10466;BME280;5280;42.600;23.556;2022-12-07T05:47:39;93307.44;;;4.54;100.00
10466;BME280;5280;42.600;23.556;2022-12-07T05:50:07;93290.69;;;4.42;100.00
10466;BME280;5280;42.600;23.556;2022-12-07T05:52:33;93304.09;;;4.52;100.00
10466;BME280;5280;42.600;23.556;2022-12-07T05:55:00;93256.50;;;4.15;100.00
10466;BME280;5280;42.600;23.556;2022-12-07T05:57:27;93281.16;;;4.41;100.00
10466;BME280;5280;42.600;23.556;2022-12-07T05:59:55;93295.41;;;4.51;100.00
10466;BME280;5280;42.600;23.556;2022-12-07T06:02:21;93296.31;;;4.50;100.00
10466;BME280;5280;42.600;23.556;2022-12-07T06:04:50;93289.41;;;4.49;100.00
10466;BME280;5280;42.600;23.556;2022-12-07T06:07:17;93285.88;;;4.50;100.00
10466;BME280;5280;42.600;23.556;2022-12-07T06:09:43;93222.84;;;4.09;100.00
10466;BME280;5280;42.600;23.556;2022-12-07T06:12:12;93289.25;;;4.52;100.00
10466;BME280;5280;42.600;23.556;2022-12-07T06:14:57;93293.63;;;4.52;100.00
10466;BME280;5280;42.600;23.556;2022-12-07T06:17:24;93294.47;;;4.52;100.00
10466;BME280;5280;42.600;23.556;2022-12-07T06:19:51;93280.06;;;4.45;100.00
10466;BME280;5280;42.600;23.556;2022-12-07T06:22:18;93236.91;;;4.22;100.00
10466;BME280;5280;42.600;23.556;2022-12-07T06:24:45;93265.47;;;4.41;100.00
10466;BME280;5280;42.600;23.556;2022-12-07T06:27:13;93290.56;;;4.59;100.00
10466;BME280;5280;42.600;23.556;2022-12-07T06:29:40;93292.91;;;4.64;100.00
10466;BME280;5280;42.600;23.556;2022-12-07T06:32:08;93306.75;;;4.66;100.00
10466;BME280;5280;42.600;23.556;2022-12-07T06:34:38;93300.41;;;4.70;100.00
10466;BME280;5280;42.600;23.556;2022-12-07T06:37:05;93227.38;;;4.21;100.00
10466;BME280;5280;42.600;23.556;2022-12-07T06:39:32;93199.88;;;4.14;100.00
10466;BME280;5280;42.600;23.556;2022-12-07T06:41:59;93292.84;;;4.80;100.00
10466;BME280;5280;42.600;23.556;2022-12-07T06:44:29;93178.00;;;4.01;100.00
10466;BME280;5280;42.600;23.556;2022-12-07T06:46:56;93322.34;;;4.83;100.00
10466;BME280;5280;42.600;23.556;2022-12-07T06:49:25;93301.22;;;4.86;100.00
10466;BME280;5280;42.600;23.556;2022-12-07T06:51:52;93321.03;;;4.90;100.00
10466;BME280;5280;42.600;23.556;2022-12-07T06:54:19;93312.06;;;4.94;100.00
10466;BME280;5280;42.600;23.556;2022-12-07T06:56:46;93199.00;;;4.29;100.00
10466;BME280;5280;42.600;23.556;2022-12-07T06:59:18;93277.84;;;4.83;100.00
10466;BME280;5280;42.600;23.556;2022-12-07T07:01:47;93301.59;;;5.08;100.00
10466;BME280;5280;42.600;23.556;2022-12-07T07:04:17;93214.94;;;4.55;100.00
10466;BME280;5280;42.600;23.556;2022-12-07T07:06:45;93268.31;;;4.96;100.00
10466;BME280;5280;42.600;23.556;2022-12-07T07:09:12;93254.81;;;4.88;100.00
10466;BME280;5280;42.600;23.556;2022-12-07T07:11:42;93299.41;;;5.31;100.00
10466;BME280;5280;42.600;23.556;2022-12-07T07:14:09;93242.69;;;4.87;100.00
10466;BME280;5280;42.600;23.556;2022-12-07T07:16:39;93217.78;;;4.80;100.00
10466;BME280;5280;42.600;23.556;2022-12-07T07:19:06;93285.94;;;5.37;100.00
10466;BME280;5280;42.600;23.556;2022-12-07T07:21:34;93289.00;;;5.43;100.00
10466;BME280;5280;42.600;23.556;2022-12-07T07:24:02;93295.56;;;5.50;100.00
10466;BME280;5280;42.600;23.556;2022-12-07T07:26:29;93308.00;;;5.61;100.00
10466;BME280;5280;42.600;23.556;2022-12-07T07:28:56;93298.94;;;5.67;100.00
10466;BME280;5280;42.600;23.556;2022-12-07T07:31:23;93303.69;;;5.74;100.00
10466;BME280;5280;42.600;23.556;2022-12-07T07:33:50;93317.34;;;5.79;100.00
10466;BME280;5280;42.600;23.556;2022-12-07T07:36:17;93301.81;;;5.76;100.00
10466;BME280;5280;42.600;23.556;2022-12-07T07:38:43;93315.69;;;5.92;100.00
10466;BME280;5280;42.600;23.556;2022-12-07T07:41:12;93300.91;;;5.91;100.00
10466;BME280;5280;42.600;23.556;2022-12-07T07:43:38;93310.81;;;6.00;100.00
10466;BME280;5280;42.600;23.556;2022-12-07T07:46:06;93301.44;;;5.96;100.00
10466;BME280;5280;42.600;23.556;2022-12-07T07:48:32;93237.69;;;5.53;100.00
10466;BME280;5280;42.600;23.556;2022-12-07T07:50:59;93322.41;;;6.11;100.00
10466;BME280;5280;42.600;23.556;2022-12-07T07:53:26;93312.19;;;6.06;100.00
10466;BME280;5280;42.600;23.556;2022-12-07T07:55:53;93317.63;;;6.17;100.00
10466;BME280;5280;42.600;23.556;2022-12-07T07:58:25;93287.13;;;6.02;100.00
10466;BME280;5280;42.600;23.556;2022-12-07T08:01:07;93218.03;;;5.60;100.00
10466;BME280;5280;42.600;23.556;2022-12-07T08:03:36;93237.84;;;5.79;100.00
10466;BME280;5280;42.600;23.556;2022-12-07T08:06:06;93258.94;;;5.91;100.00
10466;BME280;5280;42.600;23.556;2022-12-07T08:08:33;93227.06;;;5.83;100.00
10466;BME280;5280;42.600;23.556;2022-12-07T08:11:08;93206.34;;;5.66;100.00
10466;BME280;5280;42.600;23.556;2022-12-07T08:13:37;93238.41;;;5.84;100.00
10466;BME280;5280;42.600;23.556;2022-12-07T08:16:06;93212.84;;;5.73;100.00
10466;BME280;5280;42.600;23.556;2022-12-07T08:18:35;93212.84;;;5.73;100.00
10466;BME280;5280;42.600;23.556;2022-12-07T08:21:15;93251.25;;;6.02;100.00
10466;BME280;5280;42.600;23.556;2022-12-07T08:24:12;93281.53;;;6.21;100.00
10466;BME280;5280;42.600;23.556;2022-12-07T08:26:41;93234.75;;;6.00;100.00
10466;BME280;5280;42.600;23.556;2022-12-07T08:29:12;93325.44;;;6.58;100.00
10466;BME280;5280;42.600;23.556;2022-12-07T08:31:49;93291.66;;;6.39;100.00
10466;BME280;5280;42.600;23.556;2022-12-07T08:34:22;93240.31;;;6.09;100.00
10466;BME280;5280;42.600;23.556;2022-12-07T08:36:52;93219.31;;;5.96;100.00
10466;BME280;5280;42.600;23.556;2022-12-07T08:39:21;93241.47;;;6.04;100.00
10466;BME280;5280;42.600;23.556;2022-12-07T08:41:52;93313.63;;;6.65;100.00
10466;BME280;5280;42.600;23.556;2022-12-07T08:44:20;93280.47;;;6.50;100.00
10466;BME280;5280;42.600;23.556;2022-12-07T08:46:53;93241.78;;;6.27;100.00
10466;BME280;5280;42.600;23.556;2022-12-07T08:49:33;93206.13;;;6.10;100.00
10466;BME280;5280;42.600;23.556;2022-12-07T08:52:08;93278.00;;;6.61;100.00
10466;BME280;5280;42.600;23.556;2022-12-07T08:54:39;93257.38;;;6.42;100.00
10466;BME280;5280;42.600;23.556;2022-12-07T08:57:15;93226.44;;;6.33;100.00
10466;BME280;5280;42.600;23.556;2022-12-07T08:59:43;93296.09;;;6.78;100.00
10466;BME280;5280;42.600;23.556;2022-12-07T09:02:13;93270.75;;;6.65;100.00
10466;BME280;5280;42.600;23.556;2022-12-07T09:04:49;93260.03;;;6.55;100.00
10466;BME280;5280;42.600;23.556;2022-12-07T09:07:16;93288.13;;;6.92;100.00
10466;BME280;5280;42.600;23.556;2022-12-07T09:09:43;93168.78;;;6.19;100.00
10466;BME280;5280;42.600;23.556;2022-12-07T09:12:10;93216.53;;;6.51;100.00
10466;BME280;5280;42.600;23.556;2022-12-07T09:14:39;93277.22;;;6.99;100.00
10466;BME280;5280;42.600;23.556;2022-12-07T09:17:12;93197.75;;;6.57;100.00
10466;BME280;5280;42.600;23.556;2022-12-07T09:19:40;93200.56;;;6.54;100.00
10466;BME280;5280;42.600;23.556;2022-12-07T09:22:08;93274.44;;;7.27;100.00
10466;BME280;5280;42.600;23.556;2022-12-07T09:24:38;93162.47;;;6.61;100.00
10466;BME280;5280;42.600;23.556;2022-12-07T09:27:07;93236.13;;;7.23;100.00
10466;BME280;5280;42.600;23.556;2022-12-07T09:29:34;93245.53;;;7.27;100.00
10466;BME280;5280;42.600;23.556;2022-12-07T09:32:03;93204.41;;;7.01;100.00
10466;BME280;5280;42.600;23.556;2022-12-07T09:34:32;93261.06;;;7.55;100.00
10466;BME280;5280;42.600;23.556;2022-12-07T09:37:03;93188.44;;;7.04;100.00
10466;BME280;5280;42.600;23.556;2022-12-07T09:39:32;93167.63;;;7.01;100.00
10466;BME280;5280;42.600;23.556;2022-12-07T09:42:03;93205.13;;;7.28;100.00
10466;BME280;5280;42.600;23.556;2022-12-07T09:44:35;93167.00;;;7.10;100.00
10466;BME280;5280;42.600;23.556;2022-12-07T09:47:05;93228.75;;;7.53;100.00
10466;BME280;5280;42.600;23.556;2022-12-07T09:49:33;93243.53;;;7.79;100.00
10466;BME280;5280;42.600;23.556;2022-12-07T09:52:17;93195.66;;;7.38;100.00
10466;BME280;5280;42.600;23.556;2022-12-07T09:54:47;93209.84;;;7.48;100.00
10466;BME280;5280;42.600;23.556;2022-12-07T09:57:15;93149.22;;;7.26;100.00
10466;BME280;5280;42.600;23.556;2022-12-07T09:59:45;93154.66;;;7.35;100.00
10466;BME280;5280;42.600;23.556;2022-12-07T10:02:25;93131.75;;;7.25;100.00
10466;BME280;5280;42.600;23.556;2022-12-07T10:05:00;93201.78;;;7.75;100.00
10466;BME280;5280;42.600;23.556;2022-12-07T10:07:29;93144.28;;;7.58;100.00
10466;BME280;5280;42.600;23.556;2022-12-07T10:09:58;93132.22;;;7.55;100.00
10466;BME280;5280;42.600;23.556;2022-12-07T10:12:53;93220.22;;;8.11;100.00
10466;BME280;5280;42.600;23.556;2022-12-07T10:15:20;93217.44;;;8.13;100.00
10466;BME280;5280;42.600;23.556;2022-12-07T10:17:48;93201.72;;;8.24;100.00
10466;BME280;5280;42.600;23.556;2022-12-07T10:20:21;93203.25;;;8.39;100.00
10466;BME280;5280;42.600;23.556;2022-12-07T10:22:59;93207.84;;;8.48;100.00
10466;BME280;5280;42.600;23.556;2022-12-07T10:25:30;93175.69;;;8.32;100.00
10466;BME280;5280;42.600;23.556;2022-12-07T10:28:09;93207.84;;;8.48;100.00
10466;BME280;5280;42.600;23.556;2022-12-07T10:30:48;93197.91;;;8.52;100.00
10466;BME280;5280;42.600;23.556;2022-12-07T10:33:28;93188.09;;;8.54;100.00
10466;BME280;5280;42.600;23.556;2022-12-07T10:35:57;93193.03;;;8.58;100.00
10466;BME280;5280;42.600;23.556;2022-12-07T10:38:25;93138.38;;;8.38;100.00
10466;BME280;5280;42.600;23.556;2022-12-07T10:41:03;93188.06;;;8.78;100.00
10466;BME280;5280;42.600;23.556;2022-12-07T10:43:30;93160.28;;;8.74;100.00
10466;BME280;5280;42.600;23.556;2022-12-07T10:46:25;93167.25;;;8.97;100.00
10466;BME280;5280;42.600;23.556;2022-12-07T10:49:03;93162.50;;;9.13;100.00
10466;BME280;5280;42.600;23.556;2022-12-07T10:51:41;93162.38;;;9.15;100.00
10466;BME280;5280;42.600;23.556;2022-12-07T10:54:15;93147.88;;;9.20;99.95
10466;BME280;5280;42.600;23.556;2022-12-07T10:56:54;93143.22;;;9.24;98.38
10466;BME280;5280;42.600;23.556;2022-12-07T10:59:42;93151.50;;;9.30;99.27
10466;BME280;5280;42.600;23.556;2022-12-07T11:02:30;93103.06;;;8.98;99.79
10466;BME280;5280;42.600;23.556;2022-12-07T11:05:14;93145.22;;;9.42;100.00
10466;BME280;5280;42.600;23.556;2022-12-07T11:07:54;93147.41;;;9.48;98.86
10466;BME280;5280;42.600;23.556;2022-12-07T11:10:28;93125.56;;;9.46;98.47
10466;BME280;5280;42.600;23.556;2022-12-07T11:13:13;93151.34;;;9.65;97.59
10466;BME280;5280;42.600;23.556;2022-12-07T11:15:54;93110.94;;;9.42;97.08
10466;BME280;5280;42.600;23.556;2022-12-07T11:18:27;93137.69;;;9.71;97.25
10466;BME280;5280;42.600;23.556;2022-12-07T11:21:06;93131.88;;;9.77;96.83
10466;BME280;5280;42.600;23.556;2022-12-07T11:23:44;93137.03;;;9.90;95.79
10466;BME280;5280;42.600;23.556;2022-12-07T11:26:21;93140.97;;;9.96;95.29
10466;BME280;5280;42.600;23.556;2022-12-07T11:29:04;93139.69;;;9.90;94.68
10466;BME280;5280;42.600;23.556;2022-12-07T11:31:45;93135.47;;;9.87;94.62
10466;BME280;5280;42.600;23.556;2022-12-07T11:34:24;93128.75;;;9.94;94.60
10466;BME280;5280;42.600;23.556;2022-12-07T11:36:57;93117.84;;;9.88;94.49
10466;BME280;5280;42.600;23.556;2022-12-07T11:39:30;93113.50;;;9.87;94.70
10466;BME280;5280;42.600;23.556;2022-12-07T11:42:03;93088.81;;;9.77;95.45
10466;BME280;5280;42.600;23.556;2022-12-07T11:44:35;93110.16;;;9.85;96.65
10466;BME280;5280;42.600;23.556;2022-12-07T11:47:07;93104.16;;;9.83;97.13
10466;BME280;5280;42.600;23.556;2022-12-07T11:49:42;93095.69;;;9.68;96.96
10466;BME280;5280;42.600;23.556;2022-12-07T11:52:18;93094.47;;;9.72;96.20
10466;BME280;5280;42.600;23.556;2022-12-07T11:54:50;93085.34;;;9.76;95.31
10466;BME280;5280;42.600;23.556;2022-12-07T11:57:24;93087.50;;;9.82;95.27
10466;BME280;5280;42.600;23.556;2022-12-07T11:59:58;93085.94;;;9.80;95.38
10466;BME280;5280;42.600;23.556;2022-12-07T12:02:31;93068.44;;;9.79;96.06
10466;BME280;5280;42.600;23.556;2022-12-07T12:05:05;93064.69;;;9.81;96.58
10466;BME280;5280;42.600;23.556;2022-12-07T12:07:41;93074.91;;;9.86;96.68
10466;BME280;5280;42.600;23.556;2022-12-07T12:10:18;93070.91;;;9.91;96.34
10466;BME280;5280;42.600;23.556;2022-12-07T12:13:18;93062.03;;;9.92;96.24
10466;BME280;5280;42.600;23.556;2022-12-07T12:16:01;93067.91;;;9.96;96.81
10466;BME280;5280;42.600;23.556;2022-12-07T12:18:45;93064.97;;;10.10;95.18
10466;BME280;5280;42.600;23.556;2022-12-07T12:21:20;93041.84;;;10.03;95.84
10466;BME280;5280;42.600;23.556;2022-12-07T12:23:51;93075.88;;;10.17;95.11
10466;BME280;5280;42.600;23.556;2022-12-07T12:26:26;93075.06;;;10.05;94.75
10466;BME280;5280;42.600;23.556;2022-12-07T12:28:56;93073.88;;;9.98;95.30
10466;BME280;5280;42.600;23.556;2022-12-07T12:31:36;93080.81;;;10.10;95.65
10466;BME280;5280;42.600;23.556;2022-12-07T12:34:32;93061.84;;;10.16;94.73
10466;BME280;5280;42.600;23.556;2022-12-07T12:36:59;93056.31;;;10.19;94.39
10466;BME280;5280;42.600;23.556;2022-12-07T12:39:26;93053.69;;;10.19;94.46
10466;BME280;5280;42.600;23.556;2022-12-07T12:41:59;93047.81;;;10.16;94.11
10466;BME280;5280;42.600;23.556;2022-12-07T12:48:04;93042.38;;;10.17;93.07
10466;BME280;5280;42.600;23.556;2022-12-07T12:50:33;93028.84;;;10.11;94.24
10466;BME280;5280;42.600;23.556;2022-12-07T12:56:15;93050.53;;;10.14;95.92
10466;BME280;5280;42.600;23.556;2022-12-07T12:58:47;93042.41;;;10.06;95.16
10466;BME280;5280;42.600;23.556;2022-12-07T13:01:44;93057.84;;;9.90;94.69
10466;BME280;5280;42.600;23.556;2022-12-07T13:04:28;93060.88;;;9.85;95.58
10466;BME280;5280;42.600;23.556;2022-12-07T13:06:57;93037.72;;;9.78;96.48
10466;BME280;5280;42.600;23.556;2022-12-07T13:09:26;93038.75;;;9.86;98.56
10466;BME280;5280;42.600;23.556;2022-12-07T13:12:03;92966.41;;;9.36;99.64
10466;BME280;5280;42.600;23.556;2022-12-07T13:14:57;93008.88;;;9.65;99.11
10466;BME280;5280;42.600;23.556;2022-12-07T13:17:56;93044.78;;;9.88;97.24
10466;BME280;5280;42.600;23.556;2022-12-07T13:20:46;93050.06;;;9.88;96.23
10466;BME280;5280;42.600;23.556;2022-12-07T13:23:18;93047.28;;;9.90;95.52
10466;BME280;5280;42.600;23.556;2022-12-07T13:25:51;93046.44;;;9.89;95.30
10466;BME280;5280;42.600;23.556;2022-12-07T13:28:21;93039.38;;;9.90;95.47
10466;BME280;5280;42.600;23.556;2022-12-07T13:31:04;93050.25;;;9.97;95.74
10466;BME280;5280;42.600;23.556;2022-12-07T13:33:36;93060.56;;;10.00;95.84
10466;BME280;5280;42.600;23.556;2022-12-07T13:36:03;93052.19;;;9.94;95.25